AIC424 VAAH-VIDP
Flight info
| Callsign | AIC424 |
|---|---|
| Flight time | 1h 12m |
| Altitude | 41000 |
| Route | UUD1A UUD A347 UKASO UKASO7A |
| Aircraft | B77L/H-SDE1E2E3FGHIJ2J3J4J5M1RWXY/LB1D1 |
Departure
| Time | 2026-04-24 12:53 |
|---|---|
| Airport | Sardar Vallabh Patel International Airport (VAAH) |
Arrival
| Time | 2026-04-24 14:06 |
|---|---|
| Airport | Indira Gandhi International Airport (VIDP) |
| Time | Latitude | Longitude | Altitude | Speed | Heading |
|---|---|---|---|---|---|
| 2026-04-24 12:33 | 23.07329 | 72.62425 | 204 ft | 0 kts | 315° |
| 2026-04-24 12:42 | 23.07328 | 72.62427 | 197 ft | 2 kts | 315° |
| 2026-04-24 12:42 | 23.07307 | 72.62444 | 185 ft | 4 kts | 340° |
| 2026-04-24 12:43 | 23.07282 | 72.62448 | 208 ft | 4 kts | 13° |
| 2026-04-24 12:43 | 23.07258 | 72.62436 | 206 ft | 4 kts | 39° |
| 2026-04-24 12:43 | 23.07248 | 72.62427 | 206 ft | 0 kts | 45° |
| 2026-04-24 12:45 | 23.07249 | 72.62428 | 206 ft | 1 kts | 45° |
| 2026-04-24 12:45 | 23.07301 | 72.62486 | 206 ft | 19 kts | 46° |
| 2026-04-24 12:46 | 23.07386 | 72.62582 | 206 ft | 18 kts | 46° |
| 2026-04-24 12:46 | 23.07471 | 72.62678 | 204 ft | 18 kts | 46° |
| 2026-04-24 12:46 | 23.07532 | 72.62752 | 207 ft | 8 kts | 65° |
| 2026-04-24 12:46 | 23.07514 | 72.62806 | 209 ft | 8 kts | 128° |
| 2026-04-24 12:47 | 23.07475 | 72.62855 | 197 ft | 9 kts | 130° |
| 2026-04-24 12:47 | 23.07471 | 72.62923 | 201 ft | 10 kts | 54° |
| 2026-04-24 12:47 | 23.07522 | 72.62980 | 209 ft | 11 kts | 44° |
| 2026-04-24 12:47 | 23.07578 | 72.63039 | 210 ft | 11 kts | 44° |
| 2026-04-24 12:48 | 23.07638 | 72.63103 | 211 ft | 16 kts | 44° |
| 2026-04-24 12:48 | 23.07748 | 72.63219 | 209 ft | 22 kts | 44° |
| 2026-04-24 12:48 | 23.07858 | 72.63335 | 210 ft | 17 kts | 44° |
| 2026-04-24 12:48 | 23.07864 | 72.63443 | 208 ft | 16 kts | 129° |
| 2026-04-24 12:49 | 23.07802 | 72.63528 | 210 ft | 9 kts | 97° |
| 2026-04-24 12:49 | 23.07844 | 72.63582 | 206 ft | 12 kts | 38° |
| 2026-04-24 12:49 | 23.07943 | 72.63682 | 207 ft | 25 kts | 45° |
| 2026-04-24 12:49 | 23.08058 | 72.63807 | 203 ft | 23 kts | 45° |
| 2026-04-24 12:50 | 23.08174 | 72.63930 | 211 ft | 23 kts | 45° |
| 2026-04-24 12:50 | 23.08290 | 72.64054 | 213 ft | 23 kts | 44° |
| 2026-04-24 12:50 | 23.08406 | 72.64178 | 214 ft | 23 kts | 44° |
| 2026-04-24 12:50 | 23.08523 | 72.64301 | 210 ft | 23 kts | 44° |
| 2026-04-24 12:51 | 23.08639 | 72.64425 | 208 ft | 23 kts | 45° |
| 2026-04-24 12:51 | 23.08752 | 72.64547 | 206 ft | 21 kts | 40° |
| 2026-04-24 12:51 | 23.08850 | 72.64625 | 204 ft | 13 kts | 94° |
| 2026-04-24 12:51 | 23.08795 | 72.64650 | 202 ft | 9 kts | 215° |
| 2026-04-24 12:52 | 23.08767 | 72.64583 | 210 ft | 10 kts | 249° |
| 2026-04-24 12:52 | 23.08735 | 72.64532 | 204 ft | 0 kts | 225° |
| 2026-04-24 12:52 | 23.08698 | 72.64491 | 208 ft | 44 kts | 224° |
| 2026-04-24 12:52 | 23.08160 | 72.63916 | 204 ft | 171 kts | 225° |
| 2026-04-24 12:53 | 23.07101 | 72.62837 | 729 ft | 230 kts | 224° |
| 2026-04-24 12:53 | 23.06019 | 72.61438 | 1618 ft | 243 kts | 243° |
| 2026-04-24 12:53 | 23.05486 | 72.59696 | 2380 ft | 249 kts | 264° |
| 2026-04-24 12:53 | 23.05547 | 72.57777 | 2915 ft | 259 kts | 284° |
| 2026-04-24 12:54 | 23.06288 | 72.56000 | 2982 ft | 262 kts | 307° |
| 2026-04-24 12:54 | 23.07542 | 72.54583 | 3007 ft | 261 kts | 315° |
| 2026-04-24 12:54 | 23.08855 | 72.53211 | 2986 ft | 264 kts | 315° |
| 2026-04-24 12:54 | 23.10165 | 72.51831 | 2995 ft | 268 kts | 315° |
| 2026-04-24 12:55 | 23.11497 | 72.50425 | 3000 ft | 266 kts | 314° |
| 2026-04-24 12:55 | 23.12817 | 72.49019 | 2999 ft | 266 kts | 314° |
| 2026-04-24 12:55 | 23.14132 | 72.47602 | 2995 ft | 266 kts | 314° |
| 2026-04-24 12:55 | 23.15442 | 72.46187 | 2998 ft | 265 kts | 314° |
| 2026-04-24 12:56 | 23.16748 | 72.44779 | 2997 ft | 264 kts | 314° |
| 2026-04-24 12:56 | 23.18102 | 72.43466 | 2983 ft | 259 kts | 327° |
| 2026-04-24 12:56 | 23.19819 | 72.42878 | 2999 ft | 264 kts | 355° |
| 2026-04-24 12:56 | 23.21639 | 72.43220 | 3242 ft | 270 kts | 20° |
| 2026-04-24 12:57 | 23.23245 | 72.44326 | 4179 ft | 279 kts | 41° |
| 2026-04-24 12:57 | 23.24630 | 72.45800 | 5230 ft | 282 kts | 43° |
| 2026-04-24 12:57 | 23.26023 | 72.47323 | 6238 ft | 285 kts | 44° |
| 2026-04-24 12:57 | 23.27426 | 72.48858 | 7289 ft | 286 kts | 44° |
| 2026-04-24 12:58 | 23.28829 | 72.50385 | 8417 ft | 285 kts | 45° |
| 2026-04-24 12:58 | 23.30234 | 72.51905 | 9543 ft | 285 kts | 45° |
| 2026-04-24 12:58 | 23.31647 | 72.53429 | 10501 ft | 291 kts | 45° |
| 2026-04-24 12:58 | 23.33150 | 72.55047 | 10912 ft | 320 kts | 45° |
| 2026-04-24 12:59 | 23.34816 | 72.56836 | 11148 ft | 354 kts | 45° |
| 2026-04-24 12:59 | 23.36634 | 72.58786 | 11616 ft | 377 kts | 44° |
| 2026-04-24 12:59 | 23.38530 | 72.60817 | 12539 ft | 387 kts | 44° |
| 2026-04-24 12:59 | 23.40468 | 72.62895 | 13530 ft | 394 kts | 44° |
| 2026-04-24 13:00 | 23.42521 | 72.64895 | 14457 ft | 400 kts | 39° |
| 2026-04-24 13:00 | 23.44735 | 72.66762 | 15375 ft | 406 kts | 36° |
| 2026-04-24 13:00 | 23.47027 | 72.68595 | 16290 ft | 412 kts | 35° |
| 2026-04-24 13:00 | 23.49364 | 72.70447 | 17159 ft | 419 kts | 35° |
| 2026-04-24 13:01 | 23.51732 | 72.72337 | 18024 ft | 425 kts | 35° |
| 2026-04-24 13:01 | 23.54127 | 72.74273 | 18778 ft | 431 kts | 36° |
| 2026-04-24 13:01 | 23.56539 | 72.76243 | 19602 ft | 435 kts | 36° |
| 2026-04-24 13:01 | 23.58962 | 72.78237 | 20433 ft | 438 kts | 36° |
| 2026-04-24 13:02 | 23.61404 | 72.80255 | 21246 ft | 442 kts | 37° |
| 2026-04-24 13:02 | 23.63868 | 72.82296 | 22033 ft | 447 kts | 37° |
| 2026-04-24 13:02 | 23.66357 | 72.84360 | 22802 ft | 451 kts | 37° |
| 2026-04-24 13:02 | 23.68867 | 72.86442 | 23514 ft | 456 kts | 37° |
| 2026-04-24 13:03 | 23.71405 | 72.88548 | 24134 ft | 460 kts | 37° |
| 2026-04-24 13:03 | 23.73957 | 72.90666 | 24825 ft | 462 kts | 37° |
| 2026-04-24 13:03 | 23.76524 | 72.92797 | 25513 ft | 465 kts | 37° |
| 2026-04-24 13:03 | 23.79105 | 72.94940 | 26177 ft | 468 kts | 37° |
| 2026-04-24 13:04 | 23.81719 | 72.97076 | 26778 ft | 473 kts | 36° |
| 2026-04-24 13:04 | 23.84406 | 72.99189 | 27324 ft | 478 kts | 35° |
| 2026-04-24 13:04 | 23.87132 | 73.01297 | 27928 ft | 482 kts | 34° |
| 2026-04-24 13:04 | 23.89880 | 73.03413 | 28569 ft | 484 kts | 34° |
| 2026-04-24 13:05 | 23.92640 | 73.05545 | 29175 ft | 487 kts | 34° |
| 2026-04-24 13:05 | 23.95413 | 73.07695 | 29731 ft | 490 kts | 34° |
| 2026-04-24 13:05 | 23.98198 | 73.09866 | 30240 ft | 492 kts | 35° |
| 2026-04-24 13:05 | 24.00977 | 73.12038 | 30828 ft | 491 kts | 34° |
| 2026-04-24 13:06 | 24.03748 | 73.14209 | 31488 ft | 488 kts | 34° |
| 2026-04-24 13:06 | 24.06500 | 73.16368 | 32159 ft | 485 kts | 34° |
| 2026-04-24 13:06 | 24.09233 | 73.18514 | 32800 ft | 483 kts | 34° |
| 2026-04-24 13:06 | 24.11919 | 73.20623 | 33474 ft | 480 kts | 34° |
| 2026-04-24 13:07 | 24.14628 | 73.22752 | 34041 ft | 479 kts | 34° |
| 2026-04-24 13:07 | 24.17338 | 73.24880 | 34453 ft | 480 kts | 34° |
| 2026-04-24 13:07 | 24.20059 | 73.27018 | 34796 ft | 482 kts | 34° |
| 2026-04-24 13:07 | 24.22789 | 73.29165 | 35182 ft | 483 kts | 34° |
| 2026-04-24 13:08 | 24.25521 | 73.31314 | 35552 ft | 485 kts | 34° |
| 2026-04-24 13:08 | 24.28274 | 73.33482 | 35848 ft | 489 kts | 34° |
| 2026-04-24 13:08 | 24.31038 | 73.35659 | 36230 ft | 489 kts | 34° |
| 2026-04-24 13:09 | 24.36563 | 73.40015 | 37081 ft | 489 kts | 34° |
| 2026-04-24 13:09 | 24.39329 | 73.42197 | 37447 ft | 490 kts | 34° |
| 2026-04-24 13:09 | 24.42101 | 73.44385 | 37796 ft | 491 kts | 34° |
| 2026-04-24 13:09 | 24.44876 | 73.46577 | 38178 ft | 492 kts | 34° |
| 2026-04-24 13:10 | 24.47647 | 73.48768 | 38539 ft | 492 kts | 34° |
| 2026-04-24 13:10 | 24.50427 | 73.50966 | 38773 ft | 494 kts | 34° |
| 2026-04-24 13:10 | 24.56047 | 73.55413 | 38847 ft | 498 kts | 34° |
| 2026-04-24 13:11 | 24.61635 | 73.59842 | 38842 ft | 492 kts | 34° |
| 2026-04-24 13:11 | 24.67168 | 73.64233 | 38849 ft | 490 kts | 34° |
| 2026-04-24 13:12 | 24.72686 | 73.68614 | 38838 ft | 490 kts | 34° |
| 2026-04-24 13:12 | 24.78209 | 73.73004 | 38853 ft | 489 kts | 34° |
| 2026-04-24 13:13 | 24.83717 | 73.77388 | 38849 ft | 488 kts | 34° |
| 2026-04-24 13:13 | 24.89214 | 73.81768 | 38841 ft | 487 kts | 34° |
| 2026-04-24 13:14 | 24.94692 | 73.86137 | 38850 ft | 486 kts | 34° |
| 2026-04-24 13:14 | 25.00162 | 73.90506 | 38849 ft | 486 kts | 34° |
| 2026-04-24 13:15 | 25.05633 | 73.94879 | 38846 ft | 485 kts | 34° |
| 2026-04-24 13:15 | 25.11097 | 73.99253 | 38847 ft | 485 kts | 34° |
| 2026-04-24 13:16 | 25.16472 | 74.03559 | 38835 ft | 485 kts | 34° |
| 2026-04-24 13:16 | 25.21902 | 74.07915 | 38839 ft | 486 kts | 34° |
| 2026-04-24 13:17 | 25.27374 | 74.12310 | 38839 ft | 487 kts | 34° |
| 2026-04-24 13:17 | 25.32848 | 74.16710 | 38838 ft | 487 kts | 34° |
| 2026-04-24 13:18 | 25.38334 | 74.21126 | 38842 ft | 488 kts | 34° |
| 2026-04-24 13:18 | 25.43822 | 74.25549 | 38840 ft | 488 kts | 34° |
| 2026-04-24 13:19 | 25.49301 | 74.29969 | 38832 ft | 487 kts | 34° |
| 2026-04-24 13:19 | 25.54759 | 74.34378 | 38827 ft | 485 kts | 34° |
| 2026-04-24 13:20 | 25.60210 | 74.38786 | 38816 ft | 485 kts | 34° |
| 2026-04-24 13:20 | 25.65658 | 74.43196 | 38821 ft | 485 kts | 34° |
| 2026-04-24 13:21 | 25.71108 | 74.47613 | 38820 ft | 485 kts | 34° |
| 2026-04-24 13:21 | 25.76559 | 74.52036 | 38818 ft | 485 kts | 34° |
| 2026-04-24 13:22 | 25.81121 | 74.55742 | 38810 ft | 485 kts | 34° |
| 2026-04-24 13:22 | 25.86572 | 74.60175 | 38810 ft | 485 kts | 34° |
| 2026-04-24 13:23 | 25.92017 | 74.64608 | 38807 ft | 485 kts | 34° |
| 2026-04-24 13:23 | 25.97455 | 74.69041 | 38804 ft | 485 kts | 34° |
| 2026-04-24 13:24 | 26.02890 | 74.73476 | 38804 ft | 485 kts | 34° |
| 2026-04-24 13:24 | 26.08328 | 74.77919 | 38812 ft | 485 kts | 34° |
| 2026-04-24 13:25 | 26.13762 | 74.82364 | 38802 ft | 485 kts | 34° |
| 2026-04-24 13:25 | 26.19191 | 74.86810 | 38806 ft | 484 kts | 34° |
| 2026-04-24 13:26 | 26.24608 | 74.91252 | 38804 ft | 484 kts | 34° |
| 2026-04-24 13:26 | 26.30026 | 74.95701 | 38805 ft | 484 kts | 34° |
| 2026-04-24 13:27 | 26.35383 | 75.00104 | 38804 ft | 483 kts | 34° |
| 2026-04-24 13:27 | 26.40731 | 75.04505 | 38809 ft | 483 kts | 34° |
| 2026-04-24 13:28 | 26.46251 | 75.08770 | 38804 ft | 481 kts | 29° |
| 2026-04-24 13:28 | 26.52032 | 75.12543 | 38802 ft | 481 kts | 27° |
| 2026-04-24 13:29 | 26.57842 | 75.16275 | 38800 ft | 482 kts | 28° |
| 2026-04-24 13:29 | 26.63634 | 75.20037 | 38801 ft | 482 kts | 28° |
| 2026-04-24 13:30 | 26.69424 | 75.23832 | 38796 ft | 482 kts | 28° |
| 2026-04-24 13:30 | 26.75213 | 75.27637 | 38796 ft | 483 kts | 28° |
| 2026-04-24 13:31 | 26.81003 | 75.31446 | 38800 ft | 483 kts | 28° |
| 2026-04-24 13:31 | 26.86793 | 75.35258 | 38795 ft | 483 kts | 28° |
| 2026-04-24 13:32 | 26.92581 | 75.39073 | 38792 ft | 483 kts | 28° |
| 2026-04-24 13:32 | 26.98360 | 75.42887 | 38798 ft | 482 kts | 28° |
| 2026-04-24 13:33 | 27.04139 | 75.46705 | 38797 ft | 482 kts | 28° |
| 2026-04-24 13:33 | 27.09921 | 75.50529 | 38795 ft | 482 kts | 28° |
| 2026-04-24 13:34 | 27.15700 | 75.54357 | 38792 ft | 482 kts | 28° |
| 2026-04-24 13:34 | 27.21475 | 75.58186 | 38790 ft | 482 kts | 28° |
| 2026-04-24 13:35 | 27.27242 | 75.62015 | 38791 ft | 482 kts | 28° |
| 2026-04-24 13:35 | 27.33012 | 75.65850 | 38797 ft | 482 kts | 28° |
| 2026-04-24 13:36 | 27.38779 | 75.69689 | 38787 ft | 481 kts | 28° |
| 2026-04-24 13:36 | 27.44540 | 75.73528 | 38788 ft | 481 kts | 28° |
| 2026-04-24 13:37 | 27.50296 | 75.77369 | 38792 ft | 481 kts | 28° |
| 2026-04-24 13:37 | 27.56040 | 75.81207 | 38792 ft | 480 kts | 28° |
| 2026-04-24 13:38 | 27.61822 | 75.85024 | 38069 ft | 481 kts | 25° |
| 2026-04-24 13:38 | 27.64780 | 75.86606 | 37307 ft | 459 kts | 20° |
| 2026-04-24 13:38 | 27.67669 | 75.87797 | 36518 ft | 438 kts | 15° |
| 2026-04-24 13:39 | 27.70574 | 75.88767 | 35772 ft | 424 kts | 14° |
| 2026-04-24 13:39 | 27.73347 | 75.89676 | 34991 ft | 420 kts | 14° |
| 2026-04-24 13:39 | 27.76237 | 75.90621 | 34144 ft | 447 kts | 14° |
| 2026-04-24 13:39 | 27.79332 | 75.91639 | 33074 ft | 478 kts | 15° |
| 2026-04-24 13:40 | 27.82563 | 75.92715 | 31927 ft | 487 kts | 15° |
| 2026-04-24 13:40 | 27.85814 | 75.93810 | 30777 ft | 489 kts | 15° |
| 2026-04-24 13:40 | 27.89065 | 75.94913 | 29970 ft | 485 kts | 16° |
| 2026-04-24 13:40 | 27.92283 | 75.96006 | 29046 ft | 481 kts | 16° |
| 2026-04-24 13:41 | 27.95469 | 75.97088 | 28215 ft | 475 kts | 16° |
| 2026-04-24 13:41 | 27.98618 | 75.98157 | 27453 ft | 469 kts | 16° |
| 2026-04-24 13:41 | 28.01722 | 75.99209 | 26711 ft | 464 kts | 16° |
| 2026-04-24 13:41 | 28.04703 | 76.00220 | 25996 ft | 459 kts | 16° |
| 2026-04-24 13:42 | 28.07732 | 76.01248 | 25573 ft | 448 kts | 16° |
| 2026-04-24 13:42 | 28.10664 | 76.02244 | 25392 ft | 432 kts | 16° |
| 2026-04-24 13:42 | 28.13498 | 76.03207 | 25191 ft | 418 kts | 16° |
| 2026-04-24 13:42 | 28.16243 | 76.04139 | 25021 ft | 405 kts | 16° |
| 2026-04-24 13:43 | 28.18905 | 76.05045 | 24844 ft | 394 kts | 16° |
| 2026-04-24 13:43 | 28.21362 | 76.06239 | 24672 ft | 380 kts | 33° |
| 2026-04-24 13:43 | 28.23338 | 76.08172 | 24380 ft | 375 kts | 48° |
| 2026-04-24 13:43 | 28.24775 | 76.10628 | 24007 ft | 373 kts | 61° |
| 2026-04-24 13:44 | 28.25948 | 76.13239 | 23625 ft | 371 kts | 62° |
| 2026-04-24 13:44 | 28.27077 | 76.15862 | 23192 ft | 370 kts | 63° |
| 2026-04-24 13:44 | 28.28199 | 76.18488 | 22746 ft | 369 kts | 63° |
| 2026-04-24 13:44 | 28.29322 | 76.21097 | 22329 ft | 367 kts | 63° |
| 2026-04-24 13:45 | 28.30446 | 76.23686 | 21921 ft | 365 kts | 62° |
| 2026-04-24 13:45 | 28.31570 | 76.26257 | 21523 ft | 363 kts | 62° |
| 2026-04-24 13:45 | 28.32693 | 76.28813 | 21118 ft | 361 kts | 62° |
| 2026-04-24 13:45 | 28.33813 | 76.31355 | 20727 ft | 359 kts | 62° |
| 2026-04-24 13:46 | 28.34929 | 76.33885 | 20337 ft | 358 kts | 62° |
| 2026-04-24 13:46 | 28.36041 | 76.36408 | 19944 ft | 357 kts | 62° |
| 2026-04-24 13:46 | 28.37150 | 76.38923 | 19551 ft | 356 kts | 62° |
| 2026-04-24 13:46 | 28.38257 | 76.41435 | 19144 ft | 355 kts | 62° |
| 2026-04-24 13:47 | 28.39362 | 76.43944 | 18755 ft | 355 kts | 62° |
| 2026-04-24 13:47 | 28.40464 | 76.46448 | 18351 ft | 355 kts | 62° |
| 2026-04-24 13:47 | 28.41568 | 76.48959 | 17944 ft | 355 kts | 62° |
| 2026-04-24 13:47 | 28.42668 | 76.51462 | 17475 ft | 347 kts | 62° |
| 2026-04-24 13:48 | 28.43710 | 76.53838 | 17057 ft | 325 kts | 62° |
| 2026-04-24 13:48 | 28.44696 | 76.56086 | 16513 ft | 310 kts | 62° |
| 2026-04-24 13:48 | 28.45642 | 76.58242 | 15832 ft | 302 kts | 62° |
| 2026-04-24 13:48 | 28.46571 | 76.60361 | 15046 ft | 298 kts | 62° |
| 2026-04-24 13:49 | 28.47492 | 76.62460 | 14258 ft | 296 kts | 62° |
| 2026-04-24 13:49 | 28.48403 | 76.64539 | 13492 ft | 293 kts | 62° |
| 2026-04-24 13:49 | 28.49309 | 76.66608 | 12657 ft | 290 kts | 62° |
| 2026-04-24 13:49 | 28.50203 | 76.68652 | 11838 ft | 288 kts | 62° |
| 2026-04-24 13:50 | 28.51094 | 76.70688 | 11208 ft | 288 kts | 62° |
| 2026-04-24 13:50 | 28.51793 | 76.72853 | 10980 ft | 298 kts | 82° |
| 2026-04-24 13:50 | 28.51635 | 76.75204 | 10835 ft | 299 kts | 103° |
| 2026-04-24 13:50 | 28.51141 | 76.77481 | 10747 ft | 295 kts | 104° |
| 2026-04-24 13:51 | 28.50641 | 76.79717 | 10728 ft | 290 kts | 104° |
| 2026-04-24 13:51 | 28.50149 | 76.81935 | 10724 ft | 289 kts | 104° |
| 2026-04-24 13:51 | 28.49661 | 76.84166 | 10750 ft | 292 kts | 104° |
| 2026-04-24 13:51 | 28.49172 | 76.86419 | 10745 ft | 294 kts | 103° |
| 2026-04-24 13:52 | 28.48688 | 76.88668 | 10753 ft | 291 kts | 103° |
| 2026-04-24 13:52 | 28.48212 | 76.90893 | 10738 ft | 289 kts | 103° |
| 2026-04-24 13:52 | 28.47739 | 76.93107 | 10740 ft | 287 kts | 103° |
| 2026-04-24 13:52 | 28.47269 | 76.95304 | 10733 ft | 285 kts | 103° |
| 2026-04-24 13:53 | 28.46801 | 76.97492 | 10710 ft | 284 kts | 103° |
| 2026-04-24 13:53 | 28.46335 | 76.99665 | 10558 ft | 280 kts | 103° |
| 2026-04-24 13:53 | 28.45902 | 77.01679 | 10395 ft | 261 kts | 103° |
| 2026-04-24 13:53 | 28.45482 | 77.03629 | 9953 ft | 249 kts | 103° |
| 2026-04-24 13:54 | 28.45075 | 77.05523 | 9354 ft | 247 kts | 102° |
| 2026-04-24 13:54 | 28.44663 | 77.07439 | 8927 ft | 249 kts | 102° |
| 2026-04-24 13:54 | 28.44255 | 77.09333 | 8634 ft | 244 kts | 102° |
| 2026-04-24 13:54 | 28.43859 | 77.11174 | 8435 ft | 234 kts | 102° |
| 2026-04-24 13:55 | 28.43483 | 77.12913 | 8419 ft | 222 kts | 102° |
| 2026-04-24 13:55 | 28.43117 | 77.14613 | 8419 ft | 225 kts | 102° |
| 2026-04-24 13:55 | 28.42741 | 77.16361 | 8168 ft | 229 kts | 102° |
| 2026-04-24 13:55 | 28.42370 | 77.18084 | 7944 ft | 224 kts | 102° |
| 2026-04-24 13:56 | 28.42004 | 77.19778 | 7711 ft | 218 kts | 102° |
| 2026-04-24 13:56 | 28.41646 | 77.21438 | 7506 ft | 216 kts | 102° |
| 2026-04-24 13:56 | 28.41288 | 77.23095 | 7292 ft | 216 kts | 102° |
| 2026-04-24 13:56 | 28.40929 | 77.24754 | 7066 ft | 216 kts | 102° |
| 2026-04-24 13:57 | 28.40570 | 77.26414 | 6873 ft | 217 kts | 102° |
| 2026-04-24 13:57 | 28.40210 | 77.28077 | 6650 ft | 217 kts | 101° |
| 2026-04-24 13:57 | 28.40162 | 77.29741 | 6377 ft | 210 kts | 69° |
| 2026-04-24 13:57 | 28.40954 | 77.31068 | 6188 ft | 199 kts | 34° |
| 2026-04-24 13:58 | 28.42159 | 77.31777 | 6010 ft | 200 kts | 14° |
| 2026-04-24 13:58 | 28.43513 | 77.32184 | 5798 ft | 203 kts | 11° |
| 2026-04-24 13:58 | 28.44908 | 77.32560 | 5580 ft | 203 kts | 10° |
| 2026-04-24 13:58 | 28.46277 | 77.32931 | 5356 ft | 202 kts | 11° |
| 2026-04-24 13:59 | 28.47591 | 77.33294 | 5313 ft | 190 kts | 11° |
| 2026-04-24 13:59 | 28.48877 | 77.33652 | 5262 ft | 195 kts | 11° |
| 2026-04-24 13:59 | 28.50222 | 77.34028 | 5064 ft | 201 kts | 11° |
| 2026-04-24 13:59 | 28.51578 | 77.34410 | 4868 ft | 201 kts | 11° |
| 2026-04-24 14:00 | 28.52920 | 77.34790 | 4660 ft | 197 kts | 11° |
| 2026-04-24 14:00 | 28.54239 | 77.35076 | 4430 ft | 188 kts | 354° |
| 2026-04-24 14:00 | 28.55417 | 77.34592 | 4265 ft | 181 kts | 322° |
| 2026-04-24 14:00 | 28.56388 | 77.33674 | 4093 ft | 183 kts | 308° |
| 2026-04-24 14:01 | 28.56728 | 77.32328 | 3899 ft | 178 kts | 268° |
| 2026-04-24 14:01 | 28.56653 | 77.30951 | 3768 ft | 173 kts | 271° |
| 2026-04-24 14:01 | 28.56641 | 77.29612 | 3571 ft | 166 kts | 272° |
| 2026-04-24 14:01 | 28.56646 | 77.28318 | 3390 ft | 161 kts | 273° |
| 2026-04-24 14:02 | 28.56661 | 77.27042 | 3233 ft | 161 kts | 273° |
| 2026-04-24 14:02 | 28.56681 | 77.25773 | 3096 ft | 162 kts | 274° |
| 2026-04-24 14:02 | 28.56704 | 77.24495 | 2917 ft | 160 kts | 274° |
| 2026-04-24 14:02 | 28.56728 | 77.23236 | 2754 ft | 158 kts | 274° |
| 2026-04-24 14:03 | 28.56751 | 77.22007 | 2675 ft | 151 kts | 275° |
| 2026-04-24 14:03 | 28.56775 | 77.20862 | 2613 ft | 140 kts | 276° |
| 2026-04-24 14:03 | 28.56800 | 77.19762 | 2634 ft | 140 kts | 276° |
| 2026-04-24 14:03 | 28.56827 | 77.18646 | 2620 ft | 141 kts | 276° |
| 2026-04-24 14:04 | 28.56853 | 77.17534 | 2609 ft | 140 kts | 276° |
| 2026-04-24 14:04 | 28.56878 | 77.16442 | 2398 ft | 137 kts | 276° |
| 2026-04-24 14:04 | 28.56903 | 77.15368 | 2009 ft | 132 kts | 276° |
| 2026-04-24 14:04 | 28.56920 | 77.14357 | 1638 ft | 128 kts | 276° |
| 2026-04-24 14:05 | 28.56938 | 77.13285 | 1344 ft | 141 kts | 273° |
| 2026-04-24 14:05 | 28.56971 | 77.12161 | 1030 ft | 141 kts | 272° |
| 2026-04-24 14:05 | 28.56990 | 77.11048 | 788 ft | 138 kts | 271° |
| 2026-04-24 14:05 | 28.57023 | 77.10020 | 755 ft | 114 kts | 274° |
| 2026-04-24 14:06 | 28.57028 | 77.09372 | 752 ft | 38 kts | 250° |
| 2026-04-24 14:06 | 28.56981 | 77.09259 | 750 ft | 1 kts | 242° |
| 2026-04-24 14:06 | 28.56976 | 77.09247 | 750 ft | 3 kts | 242° |
| 2026-04-24 14:06 | 28.56968 | 77.09231 | 751 ft | 4 kts | 243° |
| 2026-04-24 14:07 | 28.56946 | 77.09181 | 751 ft | 7 kts | 243° |
| 2026-04-24 14:07 | 28.56923 | 77.09128 | 752 ft | 9 kts | 243° |
| 2026-04-24 14:07 | 28.56901 | 77.09057 | 750 ft | 9 kts | 258° |
| 2026-04-24 14:07 | 28.56862 | 77.09003 | 752 ft | 10 kts | 196° |
| 2026-04-24 14:08 | 28.56814 | 77.09006 | 751 ft | 11 kts | 174° |
| 2026-04-24 14:08 | 28.56713 | 77.09028 | 752 ft | 12 kts | 168° |
| 2026-04-24 14:08 | 28.56657 | 77.09040 | 753 ft | 12 kts | 169° |
| 2026-04-24 14:08 | 28.56583 | 77.09055 | 753 ft | 11 kts | 169° |
| 2026-04-24 14:09 | 28.56502 | 77.09074 | 750 ft | 13 kts | 168° |
| 2026-04-24 14:09 | 28.56413 | 77.09095 | 752 ft | 14 kts | 168° |
| 2026-04-24 14:09 | 28.56318 | 77.09092 | 750 ft | 13 kts | 193° |
| 2026-04-24 14:09 | 28.56234 | 77.09068 | 750 ft | 6 kts | 195° |
| 2026-04-24 14:10 | 28.56226 | 77.09066 | 751 ft | 2 kts | 195° |
| 2026-04-24 14:10 | 28.56209 | 77.09061 | 751 ft | 3 kts | 196° |
| 2026-04-24 14:10 | 28.56181 | 77.09051 | 752 ft | 5 kts | 195° |
| 2026-04-24 14:10 | 28.56140 | 77.09048 | 752 ft | 6 kts | 170° |
| 2026-04-24 14:11 | 28.56112 | 77.09085 | 751 ft | 7 kts | 109° |
| 2026-04-24 14:11 | 28.56118 | 77.09138 | 753 ft | 8 kts | 37° |
| 2026-04-24 14:11 | 28.56132 | 77.09259 | 751 ft | 10 kts | 104° |
| 2026-04-24 14:12 | 28.56113 | 77.09341 | 752 ft | 11 kts | 105° |
| 2026-04-24 14:12 | 28.56098 | 77.09399 | 753 ft | 2 kts | 106° |
| 2026-04-24 14:12 | 28.56095 | 77.09423 | 751 ft | 4 kts | 94° |
| 2026-04-24 14:12 | 28.56109 | 77.09444 | 750 ft | 4 kts | 30° |
| 2026-04-24 14:13 | 28.56134 | 77.09456 | 753 ft | 0 kts | 20° |
| 2026-04-24 14:14 | 28.56141 | 77.09460 | 750 ft | 0 kts | 14° |